EGHE/ISC METAR and TAF weather

Enter ICAO airport designator
Station Type Date Time Source
EGHE METAR 2019/04/24 16:50 UTC NOAA

EGHE 241650Z 17018KT 9999 FEW012 12/08 Q0990


Station Type Date Time Source
EGHE Decoded METAR 2019/04/24 16:50 UTC NOAA

Scilly, Saint Mary'S, United Kingdom (EGHE) 49-55N 006-18W 0M
Apr 24, 2019 - 12:50 PM EDT / 2019.04.24 1650 UTC
Wind: from the S (170 degrees) at 21 MPH (18 KT):0
Visibility: greater than 7 mile(s):0
Sky conditions: mostly clear
Temperature: 53 F (12 C)
Dew Point: 46 F (8 C)
Relative Humidity: 76%
Pressure (altimeter): 29.23 in. Hg (0990 hPa)
ob: EGHE 241650Z 17018KT 9999 FEW012 12/08 Q0990
cycle: 17

Station Type Date Time Source
EGHE TAF UTC NOAA

Error!

Example: see airport list